Time;durP1;ratioP1;P1;durP2;ratioP2;P2;SDS_P1;SDS_P2;PMS_P1;PMS_P2;Temp;Humidity;BMP_temperature;BMP_pressure;BME280_temperature;BME280_humidity;BME280_pressure;Samples;Min_cycle;Max_cycle;Signal;HPM_P1;HPM_P2
2021/05/20 00:00:23;;;;;;;11.83;3.50;;;;;;;17.11;60.14;101045.09;4917218;29;20413;-58
2021/05/20 00:02:51;;;;;;;13.03;4.07;;;;;;;17.13;60.15;101053.25;4917304;29;20116;-59
2021/05/20 00:05:19;;;;;;;17.35;3.17;;;;;;;17.18;60.19;101051.16;4917243;29;20123;-59
2021/05/20 00:07:47;;;;;;;13.40;3.53;;;;;;;17.15;60.24;101056.59;4916632;29;20094;-58
2021/05/20 00:10:15;;;;;;;14.43;3.90;;;;;;;17.14;60.46;101058.59;4916677;29;20497;-58
2021/05/20 00:12:44;;;;;;;8.03;3.10;;;;;;;17.09;60.54;101055.84;4916731;29;20104;-59
2021/05/20 00:15:13;;;;;;;7.07;2.97;;;;;;;17.02;60.92;101047.81;4916576;29;20059;-59
2021/05/20 00:17:40;;;;;;;11.13;2.97;;;;;;;16.89;60.89;101042.13;4916737;29;20051;-59
2021/05/20 00:20:08;;;;;;;9.93;2.43;;;;;;;16.85;60.88;101032.63;4916599;29;20052;-57
2021/05/20 00:22:34;;;;;;;13.67;3.50;;;;;;;16.93;60.98;101052.50;4915357;29;20056;-57
2021/05/20 00:25:02;;;;;;;10.57;2.53;;;;;;;16.96;60.90;101046.25;4917375;29;20416;-58
2021/05/20 00:27:29;;;;;;;9.90;3.30;;;;;;;16.99;61.04;101056.06;4917031;29;20528;-58
2021/05/20 00:29:57;;;;;;;10.53;2.83;;;;;;;16.80;60.81;101017.50;4916454;29;20139;-57
2021/05/20 00:32:24;;;;;;;13.97;4.27;;;;;;;17.03;60.92;101043.03;4916836;29;20076;-58
2021/05/20 00:34:52;;;;;;;13.93;3.40;;;;;;;17.04;60.79;101044.69;4899936;29;20090;-56
2021/05/20 00:37:19;;;;;;;18.73;3.30;;;;;;;17.04;60.79;101050.31;4916829;29;20078;-58
2021/05/20 00:39:46;;;;;;;8.13;3.03;;;;;;;17.01;60.80;101045.31;4916778;29;20134;-58
2021/05/20 00:42:13;;;;;;;10.50;3.17;;;;;;;16.94;61.25;101040.06;4916333;29;20048;-56
2021/05/20 00:44:49;;;;;;;7.80;2.87;;;;;;;16.91;61.00;101034.22;4900349;29;20075;-57
2021/05/20 00:47:23;;;;;;;9.27;2.70;;;;;;;16.91;61.23;101034.22;4916692;29;20083;-54
2021/05/20 00:49:50;;;;;;;15.80;3.00;;;;;;;16.95;60.91;101040.91;4916359;29;20048;-58
2021/05/20 00:52:17;;;;;;;18.53;3.43;;;;;;;16.95;60.76;101033.28;4916309;29;20073;-59
2021/05/20 00:54:55;;;;;;;9.47;3.00;;;;;;;16.98;60.70;101032.66;4916236;29;20051;-59
2021/05/20 00:57:23;;;;;;;10.77;3.10;;;;;;;16.91;60.91;101011.66;4916601;29;20048;-59
2021/05/20 00:59:51;;;;;;;13.13;2.80;;;;;;;17.08;60.97;101036.44;4899715;29;20052;-58
2021/05/20 01:02:19;;;;;;;12.07;3.87;;;;;;;17.01;60.38;101023.56;4916477;29;20457;-57
2021/05/20 01:04:47;;;;;;;11.10;3.20;;;;;;;17.14;60.77;101038.84;4919919;29;20048;-58
2021/05/20 01:07:15;;;;;;;9.77;3.03;;;;;;;17.15;60.89;101029.22;4919887;29;20564;-58
2021/05/20 01:09:42;;;;;;;8.47;2.90;;;;;;;16.98;60.81;101004.44;4919813;29;20068;-58
2021/05/20 01:12:10;;;;;;;9.30;2.83;;;;;;;17.14;60.86;101026.72;4903323;29;20084;-58
2021/05/20 01:14:44;;;;;;;16.73;3.30;;;;;;;17.05;61.01;101006.84;4919848;29;20084;-58
2021/05/20 01:17:12;;;;;;;9.93;3.03;;;;;;;17.09;60.65;101016.34;4919985;29;20099;-58
2021/05/20 01:19:41;;;;;;;11.03;3.40;;;;;;;17.01;61.06;101014.25;4919841;29;20084;-59
2021/05/20 01:22:08;;;;;;;18.27;2.97;;;;;;;16.95;61.31;101015.50;4903355;29;20143;-59
2021/05/20 01:24:36;;;;;;;16.67;3.07;;;;;;;16.88;61.48;101006.63;4919962;29;20051;-59
2021/05/20 01:27:05;;;;;;;12.97;3.43;;;;;;;16.86;61.46;101009.78;4919632;29;20076;-59
2021/05/20 01:29:33;;;;;;;17.30;3.93;;;;;;;16.79;61.52;101013.00;4918729;29;20130;-59
2021/05/20 01:32:01;;;;;;;8.53;3.20;;;;;;;16.87;61.57;101021.88;4919625;29;20493;-59
2021/05/20 01:34:32;;;;;;;7.07;2.60;;;;;;;16.96;61.44;101031.31;4919860;29;20071;-60
2021/05/20 01:37:06;;;;;;;11.90;4.13;;;;;;;17.00;60.96;101032.34;4919612;29;20052;-59
2021/05/20 01:39:33;;;;;;;12.90;3.50;;;;;;;16.99;60.81;101033.47;4919674;29;20055;-59
2021/05/20 01:42:00;;;;;;;8.93;3.40;;;;;;;16.91;61.27;101034.22;4919397;29;20090;-56
2021/05/20 01:44:27;;;;;;;18.97;3.33;;;;;;;16.84;61.52;101030.97;4902538;29;20552;-59
2021/05/20 01:46:54;;;;;;;9.90;3.70;;;;;;;16.78;61.48;101035.84;4919258;29;20072;-59
2021/05/20 01:49:21;;;;;;;12.03;3.00;;;;;;;16.76;61.51;101044.66;4919589;29;20052;-59
2021/05/20 01:51:48;;;;;;;12.70;2.67;;;;;;;16.71;61.52;101047.50;4919568;29;20056;-59
2021/05/20 01:54:15;;;;;;;12.73;3.80;;;;;;;16.59;61.61;101027.44;4919335;29;20076;-60
2021/05/20 01:56:41;;;;;;;8.70;3.00;;;;;;;16.52;61.71;101033.47;4919039;29;20143;-63
2021/05/20 01:59:09;;;;;;;15.03;4.13;;;;;;;16.54;61.93;101033.16;4918100;29;20119;-56
2021/05/20 02:01:36;;;;;;;16.67;3.40;;;;;;;16.40;61.60;101021.00;4918995;29;20556;-58
2021/05/20 02:04:04;;;;;;;7.93;2.80;;;;;;;16.41;61.69;101020.72;4918987;29;20048;-60
2021/05/20 02:06:31;;;;;;;8.97;3.20;;;;;;;16.30;61.83;101025.66;4918923;29;20131;-59
2021/05/20 02:08:58;;;;;;;10.37;3.20;;;;;;;16.31;62.06;101026.53;4918454;29;20056;-59
2021/05/20 02:11:24;;;;;;;7.07;3.10;;;;;;;16.35;62.21;101030.41;4918838;29;20075;-59
2021/05/20 02:13:52;;;;;;;12.77;3.60;;;;;;;16.39;61.92;101033.44;4918672;29;20079;-59
2021/05/20 02:16:19;;;;;;;10.87;4.17;;;;;;;15.84;62.23;100944.75;4918175;29;20390;-59
2021/05/20 02:18:46;;;;;;;9.50;3.27;;;;;;;16.26;62.38;101013.34;4919233;29;20111;-59
2021/05/20 02:21:13;;;;;;;8.07;3.40;;;;;;;16.22;62.12;101017.09;4918682;29;20421;-59
2021/05/20 02:23:40;;;;;;;7.63;3.70;;;;;;;16.06;62.43;100991.97;4918810;29;20055;-56
2021/05/20 02:26:07;;;;;;;19.37;4.37;;;;;;;16.11;62.32;100988.25;4918846;29;20055;-57
2021/05/20 02:28:34;;;;;;;11.53;4.37;;;;;;;16.23;62.63;101002.69;4918855;29;20073;-58
2021/05/20 02:31:01;;;;;;;10.07;4.03;;;;;;;16.21;62.62;100999.34;4918527;29;20052;-58
2021/05/20 02:33:28;;;;;;;13.13;4.17;;;;;;;16.18;62.46;100994.34;4918509;29;20051;-58
2021/05/20 02:35:55;;;;;;;11.00;3.57;;;;;;;16.21;62.56;101007.81;4918447;29;20043;-60
2021/05/20 02:38:22;;;;;;;11.33;3.10;;;;;;;16.02;62.74;100973.19;4918726;29;20114;-60
2021/05/20 02:40:48;;;;;;;9.77;3.20;;;;;;;16.19;62.60;101003.63;4918244;29;20094;-60
2021/05/20 02:43:15;;;;;;;9.57;3.50;;;;;;;16.12;62.75;100998.38;4918450;29;20412;-61
2021/05/20 02:45:42;;;;;;;14.97;3.93;;;;;;;16.20;62.47;101006.13;4917156;29;20552;-59
2021/05/20 02:48:09;;;;;;;10.87;3.27;;;;;;;16.23;62.48;101013.97;4918585;29;20418;-59
2021/05/20 02:50:36;;;;;;;7.13;3.43;;;;;;;15.99;62.45;100969.00;4918383;29;20052;-59
2021/05/20 02:53:03;;;;;;;18.57;5.20;;;;;;;16.21;62.40;101010.63;4918441;29;20072;-59
2021/05/20 02:55:30;;;;;;;20.10;5.87;;;;;;;16.14;62.70;101004.56;4901284;29;20108;-59
2021/05/20 02:58:00;;;;;;;13.90;5.30;;;;;;;16.04;62.56;100983.00;4918203;29;20072;-59
2021/05/20 03:00:33;;;;;;;12.63;4.18;;;;;;;16.22;62.38;101012.28;4918199;29;20048;-59
2021/05/20 03:03:01;;;;;;;15.80;5.20;;;;;;;16.20;62.62;101008.09;4918002;29;20096;-59
2021/05/20 03:05:31;;;;;;;17.07;3.87;;;;;;;16.09;62.64;100987.72;4917899;29;20079;-59
2021/05/20 03:07:58;;;;;;;8.30;4.07;;;;;;;16.18;62.57;101004.78;4916629;29;20099;-60
2021/05/20 03:10:26;;;;;;;11.97;5.07;;;;;;;16.12;62.78;101015.28;4918033;29;20051;-61
2021/05/20 03:12:53;;;;;;;15.40;5.77;;;;;;;16.18;62.80;101019.69;4917820;29;20107;-59
2021/05/20 03:15:20;;;;;;;14.43;3.90;;;;;;;16.08;62.50;101009.41;4917755;29;20135;-58
2021/05/20 03:17:47;;;;;;;14.00;4.57;;;;;;;16.17;62.68;101031.25;4917902;29;20060;-59
2021/05/20 03:20:14;;;;;;;12.43;4.30;;;;;;;16.14;62.83;101023.41;4917693;29;20453;-59
2021/05/20 03:22:41;;;;;;;15.67;4.00;;;;;;;16.09;62.78;101018.72;4917891;29;20052;-58
2021/05/20 03:25:09;;;;;;;10.57;4.13;;;;;;;16.00;62.86;101006.44;4917625;29;20080;-58
2021/05/20 03:27:36;;;;;;;11.37;4.53;;;;;;;16.10;62.85;101020.38;4917593;29;20076;-57
2021/05/20 03:30:07;;;;;;;9.70;3.95;;;;;;;16.04;62.59;101016.81;4917422;29;20054;-58
2021/05/20 03:32:34;;;;;;;15.33;4.37;;;;;;;16.06;62.68;101019.31;4917406;29;20052;-59
2021/05/20 03:35:01;;;;;;;12.70;3.57;;;;;;;16.04;62.84;101016.81;4917252;29;20052;-59
2021/05/20 03:37:29;;;;;;;15.33;5.00;;;;;;;15.80;62.92;100977.47;4917282;29;20072;-59
2021/05/20 03:39:56;;;;;;;16.40;4.67;;;;;;;16.01;62.90;101014.63;4917331;29;20052;-59
2021/05/20 03:42:23;;;;;;;13.63;4.47;;;;;;;16.02;62.88;101024.72;4917252;29;20496;-59
2021/05/20 03:44:52;;;;;;;15.20;3.53;;;;;;;16.00;62.78;101020.53;4917704;29;20146;-59
2021/05/20 03:47:19;;;;;;;8.97;4.40;;;;;;;15.99;63.21;101019.69;4917117;29;20104;-59
2021/05/20 03:49:45;;;;;;;9.10;4.00;;;;;;;15.94;62.94;101018.97;4917356;29;20063;-59
2021/05/20 03:52:12;;;;;;;15.47;3.87;;;;;;;15.79;63.01;100997.47;4916875;29;20048;-58
2021/05/20 03:54:42;;;;;;;12.23;4.30;;;;;;;15.86;63.18;101015.69;4916823;29;20048;-59
2021/05/20 03:57:10;;;;;;;13.43;4.43;;;;;;;15.80;63.05;101014.09;4917199;29;20378;-54
2021/05/20 03:59:37;;;;;;;11.30;4.53;;;;;;;15.87;63.09;101028.63;4916689;29;20136;-59
2021/05/20 04:02:04;;;;;;;8.77;3.53;;;;;;;15.85;63.04;101030.91;4917149;29;20052;-57
2021/05/20 04:04:32;;;;;;;11.20;4.00;;;;;;;15.68;62.97;101008.06;4917072;29;20083;-57
2021/05/20 04:06:59;;;;;;;19.33;4.73;;;;;;;15.82;63.27;101019.41;4917012;29;20395;-57
2021/05/20 04:09:25;;;;;;;6.07;3.60;;;;;;;15.76;63.27;101010.22;4916527;29;20056;-57
2021/05/20 04:11:52;;;;;;;8.93;3.57;;;;;;;15.78;63.29;101013.53;4916642;29;20131;-58
2021/05/20 04:14:19;;;;;;;12.43;3.97;;;;;;;15.66;63.65;100999.09;4916609;29;20048;-58
2021/05/20 04:16:46;;;;;;;10.03;2.83;;;;;;;15.64;64.15;101006.97;4900041;29;20458;-59
2021/05/20 04:19:15;;;;;;;13.73;4.03;;;;;;;15.69;64.19;101021.03;4916877;29;20071;-58
2021/05/20 04:21:43;;;;;;;11.37;4.20;;;;;;;15.53;64.36;100985.75;4917199;29;20397;-58
2021/05/20 04:24:10;;;;;;;14.80;4.03;;;;;;;15.66;64.48;101004.72;4916698;29;20052;-57
2021/05/20 04:26:37;;;;;;;10.43;3.60;;;;;;;15.77;64.03;101022.31;4916646;29;20079;-55
2021/05/20 04:29:03;;;;;;;9.70;3.20;;;;;;;15.73;63.86;101005.19;4916375;29;20485;-56
2021/05/20 04:31:33;;;;;;;10.27;3.43;;;;;;;15.62;63.88;101001.66;4916698;29;20052;-58
2021/05/20 04:34:00;;;;;;;10.40;3.30;;;;;;;15.43;63.57;100977.44;4916360;29;20084;-58
2021/05/20 04:36:27;;;;;;;12.40;3.53;;;;;;;15.65;63.64;100997.38;4916345;29;20048;-57
2021/05/20 04:38:54;;;;;;;13.23;4.10;;;;;;;15.72;64.02;101003.50;4916164;29;20477;-58
2021/05/20 04:41:21;;;;;;;18.03;4.13;;;;;;;15.50;64.07;100967.47;4916493;29;20524;-58
2021/05/20 04:43:48;;;;;;;11.47;3.50;;;;;;;15.70;64.32;101004.97;4916465;29;20123;-58
2021/05/20 04:46:15;;;;;;;11.37;3.43;;;;;;;15.21;64.42;100924.56;4899412;29;20084;-59
2021/05/20 04:48:42;;;;;;;10.33;2.83;;;;;;;15.41;65.50;100998.28;4916579;29;20076;-57
2021/05/20 04:51:09;;;;;;;8.80;2.60;;;;;;;15.22;65.87;100983.34;4916455;29;20083;-57
2021/05/20 04:53:36;;;;;;;9.13;3.30;;;;;;;15.06;66.41;100990.31;4916203;29;20084;-58
2021/05/20 04:56:03;;;;;;;6.23;2.40;;;;;;;14.90;66.79;100996.09;4916249;29;20094;-58
2021/05/20 04:58:30;;;;;;;9.63;2.93;;;;;;;14.75;67.23;101001.06;4916111;29;20090;-56
2021/05/20 05:00:57;;;;;;;5.77;2.77;;;;;;;14.71;67.34;101006.44;4916238;29;20084;-58
2021/05/20 05:03:24;;;;;;;9.30;2.87;;;;;;;14.70;67.09;100999.16;4916170;29;20095;-58
2021/05/20 05:05:51;;;;;;;11.03;3.13;;;;;;;14.71;67.29;101008.44;4916484;29;20075;-55
2021/05/20 05:08:18;;;;;;;12.77;3.53;;;;;;;14.74;67.14;100997.44;4916203;29;20060;-55
2021/05/20 05:10:45;;;;;;;7.40;3.03;;;;;;;14.67;66.89;100985.69;4916924;29;20135;-57
2021/05/20 05:13:12;;;;;;;9.73;3.70;;;;;;;14.72;66.58;100981.97;4916444;29;20088;-55
2021/05/20 05:15:39;;;;;;;10.53;3.10;;;;;;;14.74;66.59;100990.97;4915982;29;20505;-59
2021/05/20 05:18:06;;;;;;;18.40;3.90;;;;;;;14.90;66.52;101018.59;4916339;29;20052;-55
2021/05/20 05:20:33;;;;;;;5.60;3.10;;;;;;;14.90;66.75;101012.97;4916406;29;20079;-57
2021/05/20 05:22:59;;;;;;;8.83;3.10;;;;;;;14.89;66.72;101007.66;4915919;29;20186;-54
2021/05/20 05:25:26;;;;;;;7.37;3.00;;;;;;;14.76;67.19;101006.38;4915938;29;20489;-57
2021/05/20 05:27:53;;;;;;;9.80;3.33;;;;;;;14.74;67.28;101000.25;4916287;29;20476;-56
2021/05/20 05:30:20;;;;;;;9.87;3.20;;;;;;;14.79;67.24;101014.22;4915845;29;20121;-58
2021/05/20 05:32:47;;;;;;;8.83;4.03;;;;;;;14.97;66.79;101025.84;4915716;29;20059;-57
2021/05/20 05:35:14;;;;;;;9.87;3.30;;;;;;;15.12;66.43;101017.25;4915996;29;20102;-58
2021/05/20 05:37:41;;;;;;;7.80;3.73;;;;;;;15.25;66.06;101016.50;4898933;29;20044;-56
2021/05/20 05:40:09;;;;;;;10.87;3.43;;;;;;;15.18;66.00;100990.72;4915684;29;20520;-54
2021/05/20 05:42:35;;;;;;;8.77;3.40;;;;;;;15.38;65.75;101026.19;4916106;29;20421;-54
2021/05/20 05:45:04;;;;;;;13.13;3.27;;;;;;;15.30;65.71;100993.91;4916069;29;20052;-52
2021/05/20 05:47:32;;;;;;;11.07;4.43;;;;;;;15.53;65.57;101027.97;4916288;29;20044;-57
2021/05/20 05:50:06;;;;;;;12.07;4.17;;;;;;;15.50;65.49;101018.16;4918091;29;20063;-55
2021/05/20 05:52:33;;;;;;;13.03;4.40;;;;;;;15.69;65.29;101045.50;4919118;29;20067;-56
2021/05/20 05:55:00;;;;;;;11.07;5.00;;;;;;;15.62;65.46;101032.63;4919224;29;20094;-56
2021/05/20 05:57:27;;;;;;;16.77;4.53;;;;;;;15.74;65.39;101046.28;4919017;29;20107;-55
2021/05/20 05:59:54;;;;;;;7.97;3.63;;;;;;;15.64;65.30;101021.88;4919319;29;20382;-58
2021/05/20 06:02:23;;;;;;;10.63;4.07;;;;;;;15.68;65.10;101012.88;4919209;29;20048;-59
2021/05/20 06:04:51;;;;;;;9.30;4.73;;;;;;;15.86;65.05;101009.19;4918651;29;20044;-57
2021/05/20 06:07:18;;;;;;;12.67;4.53;;;;;;;16.18;64.90;101035.78;4918828;29;20052;-59
2021/05/20 06:09:46;;;;;;;12.53;4.70;;;;;;;16.22;64.96;101023.56;4917434;29;20139;-59
2021/05/20 06:12:12;;;;;;;11.50;3.97;;;;;;;16.47;64.78;101041.19;4919019;29;20124;-57
2021/05/20 06:14:40;;;;;;;9.23;4.40;;;;;;;16.53;64.70;101042.78;4919716;29;20516;-58
2021/05/20 06:17:07;;;;;;;8.57;4.00;;;;;;;16.61;64.50;101036.41;4919005;29;20044;-57
2021/05/20 06:19:35;;;;;;;7.57;4.33;;;;;;;16.77;64.38;101040.66;4918698;29;20457;-56
2021/05/20 06:22:02;;;;;;;12.03;4.33;;;;;;;16.86;64.29;101032.34;4918385;29;20208;-56
2021/05/20 06:24:29;;;;;;;14.63;4.60;;;;;;;17.04;64.13;101055.97;4918464;29;20044;-56
2021/05/20 06:26:56;;;;;;;11.77;4.25;;;;;;;17.08;64.28;101056.19;4901924;29;20103;-56
2021/05/20 06:29:23;;;;;;;12.77;4.15;;;;;;;17.13;64.09;101051.28;4918281;29;20086;-56
2021/05/20 06:31:50;;;;;;;9.50;4.35;;;;;;;17.22;63.60;101057.84;4918252;29;20052;-54
2021/05/20 06:34:17;;;;;;;9.13;3.55;;;;;;;17.14;63.32;101024.72;4918257;29;20056;-57
2021/05/20 06:36:45;;;;;;;9.35;4.72;;;;;;;17.54;62.92;101056.09;4918280;29;20052;-56
2021/05/20 06:39:12;;;;;;;7.40;4.78;;;;;;;17.71;62.71;101052.63;4917030;29;20052;-55
2021/05/20 06:41:39;;;;;;;13.20;4.30;;;;;;;17.87;62.58;101047.47;4918229;29;20044;-56
2021/05/20 06:44:06;;;;;;;13.32;4.30;;;;;;;17.88;62.22;101020.88;4918275;29;20044;-57
2021/05/20 06:46:34;;;;;;;10.05;4.38;;;;;;;17.93;61.78;101003.81;4918018;29;20146;-54
2021/05/20 06:49:02;;;;;;;11.43;4.13;;;;;;;18.31;61.13;101034.53;4901602;29;20064;-56
2021/05/20 06:51:30;;;;;;;8.90;5.00;;;;;;;18.52;60.77;101046.16;4917959;29;20049;-54
2021/05/20 06:53:57;;;;;;;9.43;4.80;;;;;;;18.61;60.79;101039.41;4918070;29;20056;-55
2021/05/20 06:56:26;;;;;;;7.93;4.35;;;;;;;18.93;59.97;101048.78;4918377;29;20056;-52
2021/05/20 07:01:44;;;;;;;10.30;4.55;;;;;;;18.89;59.66;100996.81;4917501;29;20287;-56
2021/05/20 07:04:12;;;;;;;9.18;4.70;;;;;;;19.31;59.20;101056.78;4918152;29;20128;-55
2021/05/20 07:06:39;;;;;;;14.15;5.05;;;;;;;19.45;58.94;101065.97;4917806;29;20083;-56
2021/05/20 07:09:23;;;;;;;16.58;6.53;;;;;;;19.70;58.72;101072.09;4903386;29;20059;-55
2021/05/20 07:11:50;;;;;;;15.60;6.18;;;;;;;19.77;58.21;101056.28;4918032;29;20056;-56
2021/05/20 07:14:18;;;;;;;13.07;5.80;;;;;;;20.05;57.56;101076.66;4917664;29;20052;-56
2021/05/20 07:16:45;;;;;;;12.90;4.80;;;;;;;20.09;57.45;101045.63;4918005;29;20416;-56
2021/05/20 07:19:18;;;;;;;12.77;5.22;;;;;;;20.50;56.77;101081.16;4917524;29;20131;-55
2021/05/20 07:21:44;;;;;;;12.70;6.05;;;;;;;20.68;56.58;101099.03;4917937;29;20060;-56
2021/05/20 07:24:11;;;;;;;16.92;6.13;;;;;;;20.83;56.05;101093.66;4917618;29;20058;-58
2021/05/20 07:26:38;;;;;;;11.57;6.68;;;;;;;20.90;55.66;101081.81;4917746;29;20463;-56
2021/05/20 07:29:06;;;;;;;12.73;5.90;;;;;;;20.99;55.24;101064.72;4917465;29;20099;-56
2021/05/20 07:31:33;;;;;;;19.20;6.85;;;;;;;21.26;54.95;101084.19;4918076;29;20402;-57
2021/05/20 07:34:00;;;;;;;14.85;7.07;;;;;;;21.40;54.72;101089.69;4917439;29;20048;-52
2021/05/20 07:36:27;;;;;;;23.92;10.90;;;;;;;21.53;54.27;101096.28;4917331;29;20058;-57
2021/05/20 07:38:54;;;;;;;12.45;7.00;;;;;;;21.70;53.77;101096.19;4917065;29;20099;-55
2021/05/20 07:41:21;;;;;;;16.23;9.30;;;;;;;21.83;53.46;101090.63;4917183;29;20052;-56
2021/05/20 07:43:48;;;;;;;15.35;8.13;;;;;;;21.92;53.37;101095.09;4917378;29;20115;-57
2021/05/20 07:46:15;;;;;;;11.68;6.63;;;;;;;21.97;53.18;101082.66;4916769;29;20091;-56
2021/05/20 07:48:42;;;;;;;12.68;6.07;;;;;;;22.17;52.61;101092.44;4917381;29;20457;-54
2021/05/20 07:51:10;;;;;;;13.95;6.32;;;;;;;22.28;52.40;101085.13;4917314;29;20091;-55
2021/05/20 07:53:38;;;;;;;13.00;6.57;;;;;;;22.41;52.01;101084.03;4917150;29;20048;-56
2021/05/20 07:56:05;;;;;;;10.43;5.57;;;;;;;22.53;51.25;101069.03;4916931;29;20063;-57
2021/05/20 07:58:32;;;;;;;11.50;5.75;;;;;;;22.71;51.30;101078.22;4916865;29;20048;-55
2021/05/20 08:01:03;;;;;;;15.30;5.32;;;;;;;22.86;50.47;101077.56;4916557;29;20107;-54
2021/05/20 08:03:45;;;;;;;14.13;5.65;;;;;;;22.93;50.65;101080.69;4916596;29;20079;-55
2021/05/20 08:11:12;;;;;;;10.80;4.88;;;;;;;23.45;49.45;101078.41;4916662;29;20076;-53
2021/05/20 08:13:39;;;;;;;11.77;5.63;;;;;;;23.63;49.10;101085.56;4915828;29;20520;-52
2021/05/20 08:16:07;;;;;;;11.27;4.57;;;;;;;23.64;48.63;101090.06;4916625;29;20560;-54
2021/05/20 08:18:34;;;;;;;15.10;5.80;;;;;;;23.54;48.50;101081.97;4916980;29;20058;-56
2021/05/20 08:21:03;;;;;;;9.07;4.40;;;;;;;23.47;48.40;101030.44;4917513;29;20530;-54
2021/05/20 08:23:32;;;;;;;12.23;5.10;;;;;;;24.34;47.83;101084.16;4916354;29;20050;-55
2021/05/20 08:26:00;;;;;;;13.52;5.43;;;;;;;24.89;46.24;101079.69;4916232;29;20095;-55
2021/05/20 08:28:27;;;;;;;9.75;4.72;;;;;;;24.96;46.36;101074.16;4916547;29;20087;-56
2021/05/20 08:30:55;;;;;;;11.55;4.70;;;;;;;25.41;45.75;101086.41;4916388;29;20477;-53
2021/05/20 08:33:22;;;;;;;10.73;5.28;;;;;;;25.69;44.90;101067.09;4916474;29;20076;-56
2021/05/20 08:35:49;;;;;;;9.52;5.07;;;;;;;26.16;44.32;101085.41;4916636;29;20492;-55
2021/05/20 08:38:18;;;;;;;8.00;4.90;;;;;;;26.40;43.78;101088.00;4916624;29;20108;-55
2021/05/20 08:40:45;;;;;;;9.77;5.05;;;;;;;26.66;43.83;101095.09;4916464;29;20055;-55
2021/05/20 08:43:12;;;;;;;17.58;5.72;;;;;;;26.99;43.26;101100.28;4916386;29;20087;-55
2021/05/20 08:45:39;;;;;;;12.45;6.00;;;;;;;27.24;42.26;101108.56;4917108;29;20048;-56
2021/05/20 08:48:07;;;;;;;11.15;5.50;;;;;;;27.16;42.42;101096.94;4916802;29;20107;-55
2021/05/20 08:50:35;;;;;;;11.65;5.50;;;;;;;27.31;41.63;101075.09;4916216;29;20048;-55
2021/05/20 08:53:02;;;;;;;12.65;5.15;;;;;;;27.48;41.44;101093.00;4899800;29;20100;-53
2021/05/20 08:55:35;;;;;;;11.02;5.43;;;;;;;27.63;41.21;101080.56;4916135;29;20087;-55
2021/05/20 08:58:11;;;;;;;10.23;4.75;;;;;;;27.87;40.31;101090.84;4916231;29;20056;-56
2021/05/20 09:00:41;;;;;;;13.75;5.25;;;;;;;28.09;40.03;101084.19;4916110;29;20048;-55
2021/05/20 09:03:11;;;;;;;9.90;3.72;;;;;;;28.37;39.42;101085.81;4916163;29;20076;-56
2021/05/20 09:05:38;;;;;;;;;;;;;;;28.32;41.78;101089.03;4916512;29;20087;-55
2021/05/20 09:08:10;;;;;;;8.68;4.70;;;;;;;28.45;39.58;101087.59;4916107;29;19930;-54
2021/05/20 09:10:38;;;;;;;10.60;5.22;;;;;;;28.65;39.11;101091.16;4916284;29;20052;-54
2021/05/20 09:13:14;;;;;;;13.30;4.50;;;;;;;28.83;38.92;101085.59;4916107;29;20056;-55
2021/05/20 09:15:41;;;;;;;10.57;4.85;;;;;;;28.97;38.65;101082.88;4915954;29;20131;-56
2021/05/20 09:18:16;;;;;;;8.13;4.03;;;;;;;29.13;38.06;101078.97;4916540;29;20048;-55
2021/05/20 09:20:47;;;;;;;8.45;4.40;;;;;;;29.20;37.81;101081.94;4916034;29;20048;-58
2021/05/20 09:23:17;;;;;;;9.18;4.75;;;;;;;29.29;37.58;101082.41;4916314;29;20354;-58
2021/05/20 09:25:46;;;;;;;11.23;4.50;;;;;;;29.29;37.57;101062.28;4919645;29;20052;-59
2021/05/20 09:28:14;;;;;;;11.30;4.70;;;;;;;29.47;37.34;101077.66;4903075;29;20100;-59
2021/05/20 09:30:46;;;;;;;12.10;5.30;;;;;;;29.65;37.35;101065.50;4902803;29;20059;-58
2021/05/20 09:33:15;;;;;;;11.50;5.32;;;;;;;29.82;37.02;101067.69;4919719;29;20056;-59
2021/05/20 09:35:45;;;;;;;13.10;5.13;;;;;;;29.97;37.06;101080.94;4919927;29;20131;-58
2021/05/20 09:38:19;;;;;;;8.07;4.43;;;;;;;29.92;36.63;101061.19;4919461;29;20568;-58
2021/05/20 09:40:55;;;;;;;10.02;5.05;;;;;;;29.89;36.98;101066.94;4918435;29;20090;-59
2021/05/20 09:43:25;;;;;;;8.35;5.07;;;;;;;29.94;36.53;101069.41;4919595;29;20115;-59
2021/05/20 09:45:54;;;;;;;11.02;5.13;;;;;;;29.88;36.10;101060.34;4919613;29;20121;-60
2021/05/20 09:48:22;;;;;;;10.35;4.20;;;;;;;29.90;36.35;101072.25;4919156;29;20052;-57
2021/05/20 09:50:52;;;;;;;9.65;4.13;;;;;;;30.05;35.89;101063.72;4919076;29;20048;-58
2021/05/20 09:53:21;;;;;;;9.20;4.22;;;;;;;30.16;36.18;101059.69;4919109;29;20512;-58
2021/05/20 09:55:57;;;;;;;11.88;4.05;;;;;;;30.26;36.23;101061.00;4918972;29;20504;-59
2021/05/20 09:58:29;;;;;;;13.63;4.80;;;;;;;30.35;35.96;101047.03;4919306;29;20561;-57
2021/05/20 10:01:01;;;;;;;11.43;3.92;;;;;;;30.34;35.26;101036.75;4919172;29;20175;-59
2021/05/20 10:03:29;;;;;;;11.02;4.03;;;;;;;30.48;35.07;101049.59;4917723;29;20056;-60
2021/05/20 10:05:59;;;;;;;7.88;3.85;;;;;;;30.61;34.92;101050.88;4919178;29;20052;-58
2021/05/20 10:08:30;;;;;;;8.45;4.60;;;;;;;30.74;34.76;101052.16;4919041;29;20063;-58
2021/05/20 10:11:02;;;;;;;8.18;4.30;;;;;;;30.74;34.37;101043.50;4919619;29;20044;-57
2021/05/20 10:13:29;;;;;;;8.43;4.95;;;;;;;30.54;34.88;101019.16;4919200;29;20056;-60
2021/05/20 10:15:58;;;;;;;9.75;4.63;;;;;;;30.78;35.03;101038.59;4918958;29;20174;-58
2021/05/20 10:18:26;;;;;;;10.15;4.10;;;;;;;30.82;34.94;101039.44;4919402;29;20112;-59
2021/05/20 10:20:57;;;;;;;7.43;4.57;;;;;;;30.95;35.25;101030.41;4918917;29;20450;-59
2021/05/20 10:23:25;;;;;;;8.77;4.70;;;;;;;31.01;35.37;101040.28;4918701;29;20079;-59
2021/05/20 10:25:54;;;;;;;10.18;4.40;;;;;;;31.09;34.18;101037.00;4918603;29;20080;-58
2021/05/20 10:28:23;;;;;;;13.35;4.82;;;;;;;31.17;34.33;101032.88;4917436;29;20052;-57
2021/05/20 10:30:51;;;;;;;10.20;5.07;;;;;;;31.25;34.47;101036.63;4918732;29;20084;-50
2021/05/20 10:33:24;;;;;;;7.50;4.63;;;;;;;31.22;34.10;101034.56;4918951;29;20115;-52
2021/05/20 10:35:53;;;;;;;7.93;4.25;;;;;;;31.09;34.08;101036.19;4917706;29;20076;-58
2021/05/20 10:38:28;;;;;;;9.90;4.22;;;;;;;31.07;34.77;101032.88;4918668;29;20096;-55
2021/05/20 10:41:23;;;;;;;9.15;4.15;;;;;;;31.22;35.12;101025.91;4918745;29;20105;-54
2021/05/20 10:44:08;;;;;;;6.53;3.55;;;;;;;31.28;34.68;101021.38;4916293;29;20078;-54
2021/05/20 10:46:56;;;;;;;7.45;2.78;;;;;;;31.39;33.96;101019.34;4918171;28;20493;-55
2021/05/20 10:49:45;;;;;;;8.05;3.08;;;;;;;31.45;34.58;101013.97;4918565;29;20070;-50
2021/05/20 10:52:45;;;;;;;10.05;3.22;;;;;;;31.60;33.99;101006.13;4918096;29;20086;-54
2021/05/20 10:55:15;;;;;;;7.95;3.55;;;;;;;31.67;33.28;100987.97;4917984;29;20099;-54
2021/05/20 10:57:58;;;;;;;8.30;3.35;;;;;;;31.61;33.43;101011.47;4918392;29;20048;-50
2021/05/20 11:00:44;;;;;;;7.32;3.42;;;;;;;31.71;33.33;101001.16;4918078;29;20056;-50
2021/05/20 11:03:11;;;;;;;7.25;3.78;;;;;;;31.78;33.18;101004.03;4918296;29;20082;-50
2021/05/20 11:05:41;;;;;;;6.70;3.63;;;;;;;31.71;32.54;100997.44;4917810;29;20084;-52
2021/05/20 11:08:31;;;;;;;5.30;2.80;;;;;;;31.57;32.42;101004.06;4917512;29;20504;-52
2021/05/20 11:11:01;;;;;;;12.70;3.45;;;;;;;31.62;32.06;100989.19;4908184;29;20091;-51
2021/05/20 11:13:48;;;;;;;13.48;3.60;;;;;;;31.65;32.47;100997.03;4917663;29;20088;-52
2021/05/20 11:16:17;;;;;;;7.28;3.08;;;;;;;31.60;31.23;100974.38;4918185;29;20048;-54
2021/05/20 11:18:48;;;;;;;;;;;;;;;31.12;33.78;100992.91;4917973;29;20116;-54
2021/05/20 11:21:16;;;;;;;7.22;3.08;;;;;;;31.68;32.20;100990.44;4917816;29;19947;-52
2021/05/20 11:23:44;;;;;;;7.53;3.22;;;;;;;31.71;31.21;100969.41;4917530;29;20048;-51
2021/05/20 11:26:19;;;;;;;8.05;3.03;;;;;;;31.98;31.90;100977.59;4917681;29;20119;-53
2021/05/20 11:29:01;;;;;;;7.50;3.17;;;;;;;31.86;31.60;100985.47;4900497;29;20080;-55
2021/05/20 11:31:29;;;;;;;6.95;2.75;;;;;;;31.51;31.81;100943.03;4917255;29;20115;-56
2021/05/20 11:34:10;;;;;;;5.82;2.78;;;;;;;31.42;31.82;100973.56;4917282;29;20507;-54
2021/05/20 11:36:42;;;;;;;5.20;2.50;;;;;;;31.37;31.59;100971.91;4917265;29;20063;-51